Zingem, Belgium
Current Conditions -  °F | °C
As of 8:25 AM on Wednesday 26 Nov 2014 (Local Time) from EBCV Reporting Station
Broken Clouds Broken Clouds  
Wind Chill: 43°   Ceiling: 2100
Heat Index: 43°   Visibility: 2.5mi
Dew Point: 43°   Wind: 3mph
Humidity: 100%   Direction: 90°E
Pressure: 29.91"   Gusts: NA
Location:  50.9°N, 3.65°E
Report Text: EBCV 260725Z AUTO 09003KT 4000 BKN021/// 06/06 Q1013 GRN
Loading
Personal Weather Stations






























Interactive Weather Map New forecast layout! Learn more

10-Day Weather Forecast

Advertisements
Track Severe Weather on mobile